sensor_id;sensor_type;location;lat;lon;timestamp;P1;durP1;ratioP1;P2;durP2;ratioP2
33563;SDS011;19894;48.452;11.494;2022-08-21T00:01:31;0.10;;;0.10;;
33563;SDS011;19894;48.452;11.494;2022-08-21T00:03:56;0.20;;;0.10;;
33563;SDS011;19894;48.452;11.494;2022-08-21T00:06:22;0.10;;;0.10;;
33563;SDS011;19894;48.452;11.494;2022-08-21T00:08:49;0.10;;;0.10;;
33563;SDS011;19894;48.452;11.494;2022-08-21T00:11:15;0.20;;;0.20;;
33563;SDS011;19894;48.452;11.494;2022-08-21T00:13:42;0.00;;;0.00;;
33563;SDS011;19894;48.452;11.494;2022-08-21T00:16:07;0.00;;;0.00;;
33563;SDS011;19894;48.452;11.494;2022-08-21T00:18:33;0.03;;;0.03;;
33563;SDS011;19894;48.452;11.494;2022-08-21T00:20:59;0.03;;;0.03;;
33563;SDS011;19894;48.452;11.494;2022-08-21T00:23:25;0.20;;;0.10;;
33563;SDS011;19894;48.452;11.494;2022-08-21T00:25:51;0.10;;;0.10;;
33563;SDS011;19894;48.452;11.494;2022-08-21T00:28:16;0.10;;;0.10;;
33563;SDS011;19894;48.452;11.494;2022-08-21T00:30:44;0.10;;;0.10;;
33563;SDS011;19894;48.452;11.494;2022-08-21T00:33:10;0.08;;;0.08;;
33563;SDS011;19894;48.452;11.494;2022-08-21T00:35:38;0.00;;;0.00;;
33563;SDS011;19894;48.452;11.494;2022-08-21T00:38:05;0.00;;;0.00;;
33563;SDS011;19894;48.452;11.494;2022-08-21T00:40:39;0.10;;;0.10;;
33563;SDS011;19894;48.452;11.494;2022-08-21T00:43:08;0.00;;;0.00;;
33563;SDS011;19894;48.452;11.494;2022-08-21T00:45:36;0.10;;;0.10;;
33563;SDS011;19894;48.452;11.494;2022-08-21T00:48:02;0.00;;;0.00;;
33563;SDS011;19894;48.452;11.494;2022-08-21T00:50:29;0.00;;;0.00;;
33563;SDS011;19894;48.452;11.494;2022-08-21T00:52:57;0.00;;;0.00;;
33563;SDS011;19894;48.452;11.494;2022-08-21T00:55:25;0.20;;;0.20;;
33563;SDS011;19894;48.452;11.494;2022-08-21T00:57:52;0.10;;;0.10;;
33563;SDS011;19894;48.452;11.494;2022-08-21T01:00:22;0.00;;;0.00;;
33563;SDS011;19894;48.452;11.494;2022-08-21T01:02:53;0.10;;;0.00;;
33563;SDS011;19894;48.452;11.494;2022-08-21T01:05:20;0.10;;;0.10;;
33563;SDS011;19894;48.452;11.494;2022-08-21T01:07:46;0.10;;;0.10;;
33563;SDS011;19894;48.452;11.494;2022-08-21T01:10:12;0.00;;;0.00;;
33563;SDS011;19894;48.452;11.494;2022-08-21T01:12:39;0.10;;;0.10;;
33563;SDS011;19894;48.452;11.494;2022-08-21T01:15:06;0.08;;;0.08;;
33563;SDS011;19894;48.452;11.494;2022-08-21T01:17:33;0.10;;;0.10;;
33563;SDS011;19894;48.452;11.494;2022-08-21T01:20:00;0.25;;;0.13;;
33563;SDS011;19894;48.452;11.494;2022-08-21T01:22:29;0.00;;;0.00;;
33563;SDS011;19894;48.452;11.494;2022-08-21T01:24:54;0.10;;;0.10;;
33563;SDS011;19894;48.452;11.494;2022-08-21T01:27:20;0.10;;;0.10;;
33563;SDS011;19894;48.452;11.494;2022-08-21T01:30:01;0.40;;;0.40;;
33563;SDS011;19894;48.452;11.494;2022-08-21T01:32:39;0.20;;;0.20;;
33563;SDS011;19894;48.452;11.494;2022-08-21T01:35:06;0.00;;;0.00;;
33563;SDS011;19894;48.452;11.494;2022-08-21T01:37:32;0.00;;;0.00;;
33563;SDS011;19894;48.452;11.494;2022-08-21T01:39:57;0.10;;;0.00;;
33563;SDS011;19894;48.452;11.494;2022-08-21T01:42:23;0.10;;;0.10;;
33563;SDS011;19894;48.452;11.494;2022-08-21T01:44:49;0.10;;;0.10;;
33563;SDS011;19894;48.452;11.494;2022-08-21T01:47:15;0.05;;;0.05;;
33563;SDS011;19894;48.452;11.494;2022-08-21T01:49:42;0.00;;;0.00;;
33563;SDS011;19894;48.452;11.494;2022-08-21T01:52:08;0.25;;;0.10;;
33563;SDS011;19894;48.452;11.494;2022-08-21T01:54:34;0.10;;;0.10;;
33563;SDS011;19894;48.452;11.494;2022-08-21T01:57:00;0.10;;;0.10;;
33563;SDS011;19894;48.452;11.494;2022-08-21T01:59:26;0.10;;;0.10;;
33563;SDS011;19894;48.452;11.494;2022-08-21T02:01:52;0.10;;;0.10;;
33563;SDS011;19894;48.452;11.494;2022-08-21T02:04:19;0.10;;;0.10;;
33563;SDS011;19894;48.452;11.494;2022-08-21T02:06:45;0.00;;;0.00;;
33563;SDS011;19894;48.452;11.494;2022-08-21T02:09:11;0.10;;;0.10;;
33563;SDS011;19894;48.452;11.494;2022-08-21T02:11:39;0.03;;;0.00;;
33563;SDS011;19894;48.452;11.494;2022-08-21T02:14:09;0.08;;;0.08;;
33563;SDS011;19894;48.452;11.494;2022-08-21T02:16:36;0.00;;;0.00;;
33563;SDS011;19894;48.452;11.494;2022-08-21T02:19:03;0.00;;;0.00;;
33563;SDS011;19894;48.452;11.494;2022-08-21T02:21:29;0.05;;;0.05;;
33563;SDS011;19894;48.452;11.494;2022-08-21T02:23:54;0.30;;;0.30;;
33563;SDS011;19894;48.452;11.494;2022-08-21T02:26:20;0.00;;;0.00;;
33563;SDS011;19894;48.452;11.494;2022-08-21T02:28:46;0.05;;;0.05;;
33563;SDS011;19894;48.452;11.494;2022-08-21T02:31:11;0.10;;;0.10;;
33563;SDS011;19894;48.452;11.494;2022-08-21T02:33:37;0.10;;;0.10;;
33563;SDS011;19894;48.452;11.494;2022-08-21T02:36:04;0.10;;;0.10;;
33563;SDS011;19894;48.452;11.494;2022-08-21T02:38:30;0.20;;;0.20;;
33563;SDS011;19894;48.452;11.494;2022-08-21T02:40:58;0.10;;;0.10;;
33563;SDS011;19894;48.452;11.494;2022-08-21T02:43:25;0.00;;;0.00;;
33563;SDS011;19894;48.452;11.494;2022-08-21T02:45:53;0.00;;;0.00;;
33563;SDS011;19894;48.452;11.494;2022-08-21T02:48:21;0.10;;;0.10;;
33563;SDS011;19894;48.452;11.494;2022-08-21T02:50:56;0.03;;;0.00;;
33563;SDS011;19894;48.452;11.494;2022-08-21T02:53:27;0.00;;;0.00;;
33563;SDS011;19894;48.452;11.494;2022-08-21T02:55:54;0.10;;;0.10;;
33563;SDS011;19894;48.452;11.494;2022-08-21T02:58:23;0.10;;;0.00;;
33563;SDS011;19894;48.452;11.494;2022-08-21T03:00:55;0.03;;;0.03;;
33563;SDS011;19894;48.452;11.494;2022-08-21T03:03:21;0.10;;;0.10;;
33563;SDS011;19894;48.452;11.494;2022-08-21T03:05:47;0.08;;;0.08;;
33563;SDS011;19894;48.452;11.494;2022-08-21T03:08:13;0.20;;;0.20;;
33563;SDS011;19894;48.452;11.494;2022-08-21T03:10:40;0.10;;;0.10;;
33563;SDS011;19894;48.452;11.494;2022-08-21T03:13:09;0.00;;;0.00;;
33563;SDS011;19894;48.452;11.494;2022-08-21T03:15:35;0.10;;;0.10;;
33563;SDS011;19894;48.452;11.494;2022-08-21T03:18:02;0.10;;;0.10;;
33563;SDS011;19894;48.452;11.494;2022-08-21T03:20:29;0.00;;;0.00;;
33563;SDS011;19894;48.452;11.494;2022-08-21T03:22:56;0.10;;;0.10;;
33563;SDS011;19894;48.452;11.494;2022-08-21T03:25:22;0.10;;;0.00;;
33563;SDS011;19894;48.452;11.494;2022-08-21T03:27:48;0.10;;;0.10;;
33563;SDS011;19894;48.452;11.494;2022-08-21T03:30:15;0.10;;;0.10;;
33563;SDS011;19894;48.452;11.494;2022-08-21T03:32:41;0.10;;;0.10;;
33563;SDS011;19894;48.452;11.494;2022-08-21T03:35:07;0.00;;;0.00;;
33563;SDS011;19894;48.452;11.494;2022-08-21T03:37:34;0.10;;;0.10;;
33563;SDS011;19894;48.452;11.494;2022-08-21T03:40:00;0.17;;;0.17;;
33563;SDS011;19894;48.452;11.494;2022-08-21T03:42:27;0.05;;;0.05;;
33563;SDS011;19894;48.452;11.494;2022-08-21T03:44:53;0.20;;;0.20;;
33563;SDS011;19894;48.452;11.494;2022-08-21T03:47:18;0.00;;;0.00;;
33563;SDS011;19894;48.452;11.494;2022-08-21T03:49:44;0.10;;;0.08;;
33563;SDS011;19894;48.452;11.494;2022-08-21T03:52:10;0.17;;;0.17;;
33563;SDS011;19894;48.452;11.494;2022-08-21T03:54:35;0.03;;;0.03;;
33563;SDS011;19894;48.452;11.494;2022-08-21T03:57:02;0.10;;;0.10;;
33563;SDS011;19894;48.452;11.494;2022-08-21T03:59:28;0.08;;;0.08;;
33563;SDS011;19894;48.452;11.494;2022-08-21T04:01:54;0.00;;;0.00;;
33563;SDS011;19894;48.452;11.494;2022-08-21T04:04:21;0.10;;;0.10;;
33563;SDS011;19894;48.452;11.494;2022-08-21T04:06:47;0.17;;;0.10;;
33563;SDS011;19894;48.452;11.494;2022-08-21T04:09:12;0.00;;;0.00;;
33563;SDS011;19894;48.452;11.494;2022-08-21T04:11:38;0.05;;;0.05;;
33563;SDS011;19894;48.452;11.494;2022-08-21T04:14:03;0.00;;;0.00;;
33563;SDS011;19894;48.452;11.494;2022-08-21T04:16:29;0.10;;;0.10;;
33563;SDS011;19894;48.452;11.494;2022-08-21T04:18:55;0.10;;;0.10;;
33563;SDS011;19894;48.452;11.494;2022-08-21T04:21:21;0.10;;;0.10;;
33563;SDS011;19894;48.452;11.494;2022-08-21T04:23:47;0.20;;;0.20;;
33563;SDS011;19894;48.452;11.494;2022-08-21T04:26:13;0.10;;;0.00;;
33563;SDS011;19894;48.452;11.494;2022-08-21T04:28:38;0.20;;;0.20;;
33563;SDS011;19894;48.452;11.494;2022-08-21T04:31:04;0.30;;;0.10;;
33563;SDS011;19894;48.452;11.494;2022-08-21T04:33:30;0.00;;;0.00;;
33563;SDS011;19894;48.452;11.494;2022-08-21T04:35:55;0.10;;;0.10;;
33563;SDS011;19894;48.452;11.494;2022-08-21T04:38:21;0.00;;;0.00;;
33563;SDS011;19894;48.452;11.494;2022-08-21T04:40:47;0.00;;;0.00;;
33563;SDS011;19894;48.452;11.494;2022-08-21T04:43:13;0.00;;;0.00;;
33563;SDS011;19894;48.452;11.494;2022-08-21T04:45:40;0.03;;;0.03;;
33563;SDS011;19894;48.452;11.494;2022-08-21T04:48:08;0.10;;;0.10;;
33563;SDS011;19894;48.452;11.494;2022-08-21T04:53:15;0.05;;;0.05;;
33563;SDS011;19894;48.452;11.494;2022-08-21T04:55:43;0.10;;;0.10;;
33563;SDS011;19894;48.452;11.494;2022-08-21T04:58:11;0.00;;;0.00;;
33563;SDS011;19894;48.452;11.494;2022-08-21T05:00:39;0.27;;;0.27;;
33563;SDS011;19894;48.452;11.494;2022-08-21T05:03:06;0.20;;;0.20;;
33563;SDS011;19894;48.452;11.494;2022-08-21T05:05:34;0.00;;;0.00;;
33563;SDS011;19894;48.452;11.494;2022-08-21T05:08:01;0.10;;;0.10;;
33563;SDS011;19894;48.452;11.494;2022-08-21T05:10:28;0.10;;;0.10;;
33563;SDS011;19894;48.452;11.494;2022-08-21T05:12:55;0.17;;;0.10;;
33563;SDS011;19894;48.452;11.494;2022-08-21T05:15:20;0.15;;;0.15;;
33563;SDS011;19894;48.452;11.494;2022-08-21T05:17:46;0.00;;;0.00;;
33563;SDS011;19894;48.452;11.494;2022-08-21T05:20:13;0.03;;;0.03;;
33563;SDS011;19894;48.452;11.494;2022-08-21T05:22:39;0.10;;;0.10;;
33563;SDS011;19894;48.452;11.494;2022-08-21T05:25:05;0.00;;;0.00;;
33563;SDS011;19894;48.452;11.494;2022-08-21T05:27:32;0.15;;;0.10;;
33563;SDS011;19894;48.452;11.494;2022-08-21T05:29:58;0.00;;;0.00;;
33563;SDS011;19894;48.452;11.494;2022-08-21T05:32:24;0.00;;;0.00;;
33563;SDS011;19894;48.452;11.494;2022-08-21T05:34:50;0.00;;;0.00;;
33563;SDS011;19894;48.452;11.494;2022-08-21T05:37:16;0.03;;;0.03;;
33563;SDS011;19894;48.452;11.494;2022-08-21T05:39:41;0.10;;;0.10;;
33563;SDS011;19894;48.452;11.494;2022-08-21T05:42:07;0.10;;;0.03;;
33563;SDS011;19894;48.452;11.494;2022-08-21T05:44:33;0.15;;;0.10;;
33563;SDS011;19894;48.452;11.494;2022-08-21T05:47:03;0.00;;;0.00;;
33563;SDS011;19894;48.452;11.494;2022-08-21T05:49:33;0.10;;;0.10;;
33563;SDS011;19894;48.452;11.494;2022-08-21T05:51:59;0.17;;;0.10;;
33563;SDS011;19894;48.452;11.494;2022-08-21T05:54:24;0.10;;;0.10;;
33563;SDS011;19894;48.452;11.494;2022-08-21T05:56:50;0.13;;;0.13;;
33563;SDS011;19894;48.452;11.494;2022-08-21T05:59:16;0.10;;;0.10;;
33563;SDS011;19894;48.452;11.494;2022-08-21T06:01:43;0.20;;;0.10;;
33563;SDS011;19894;48.452;11.494;2022-08-21T06:04:10;0.08;;;0.08;;
33563;SDS011;19894;48.452;11.494;2022-08-21T06:06:36;0.08;;;0.08;;
33563;SDS011;19894;48.452;11.494;2022-08-21T06:09:02;0.00;;;0.00;;
33563;SDS011;19894;48.452;11.494;2022-08-21T06:11:28;0.00;;;0.00;;
33563;SDS011;19894;48.452;11.494;2022-08-21T06:13:54;0.00;;;0.00;;
33563;SDS011;19894;48.452;11.494;2022-08-21T06:16:19;0.00;;;0.00;;
33563;SDS011;19894;48.452;11.494;2022-08-21T06:18:46;0.10;;;0.10;;
33563;SDS011;19894;48.452;11.494;2022-08-21T06:21:12;0.10;;;0.10;;
33563;SDS011;19894;48.452;11.494;2022-08-21T06:23:38;0.00;;;0.00;;
33563;SDS011;19894;48.452;11.494;2022-08-21T06:26:04;0.10;;;0.10;;
33563;SDS011;19894;48.452;11.494;2022-08-21T06:28:32;0.10;;;0.10;;
33563;SDS011;19894;48.452;11.494;2022-08-21T06:30:58;0.22;;;0.10;;
33563;SDS011;19894;48.452;11.494;2022-08-21T06:33:24;0.10;;;0.10;;
33563;SDS011;19894;48.452;11.494;2022-08-21T06:35:50;0.13;;;0.10;;
33563;SDS011;19894;48.452;11.494;2022-08-21T06:38:15;0.08;;;0.08;;
33563;SDS011;19894;48.452;11.494;2022-08-21T06:40:42;0.65;;;0.10;;
33563;SDS011;19894;48.452;11.494;2022-08-21T06:43:09;0.20;;;0.20;;
33563;SDS011;19894;48.452;11.494;2022-08-21T06:45:40;0.10;;;0.00;;
33563;SDS011;19894;48.452;11.494;2022-08-21T06:48:06;0.08;;;0.08;;
33563;SDS011;19894;48.452;11.494;2022-08-21T06:50:32;0.17;;;0.10;;
33563;SDS011;19894;48.452;11.494;2022-08-21T06:52:59;0.10;;;0.10;;
33563;SDS011;19894;48.452;11.494;2022-08-21T06:55:29;0.10;;;0.10;;
33563;SDS011;19894;48.452;11.494;2022-08-21T06:57:55;0.10;;;0.10;;
33563;SDS011;19894;48.452;11.494;2022-08-21T07:00:21;0.10;;;0.10;;
33563;SDS011;19894;48.452;11.494;2022-08-21T07:02:46;0.13;;;0.13;;
33563;SDS011;19894;48.452;11.494;2022-08-21T07:05:12;0.20;;;0.20;;
33563;SDS011;19894;48.452;11.494;2022-08-21T07:07:38;0.20;;;0.20;;
33563;SDS011;19894;48.452;11.494;2022-08-21T07:10:03;0.30;;;0.20;;
33563;SDS011;19894;48.452;11.494;2022-08-21T07:12:29;0.20;;;0.20;;
33563;SDS011;19894;48.452;11.494;2022-08-21T07:14:56;0.28;;;0.28;;
33563;SDS011;19894;48.452;11.494;2022-08-21T07:17:21;0.20;;;0.20;;
33563;SDS011;19894;48.452;11.494;2022-08-21T07:19:47;0.10;;;0.10;;
33563;SDS011;19894;48.452;11.494;2022-08-21T07:22:12;0.25;;;0.20;;
33563;SDS011;19894;48.452;11.494;2022-08-21T07:24:40;0.10;;;0.10;;
33563;SDS011;19894;48.452;11.494;2022-08-21T07:27:06;0.45;;;0.30;;
33563;SDS011;19894;48.452;11.494;2022-08-21T07:29:31;0.10;;;0.10;;
33563;SDS011;19894;48.452;11.494;2022-08-21T07:31:57;0.10;;;0.10;;
33563;SDS011;19894;48.452;11.494;2022-08-21T07:34:23;0.22;;;0.22;;
33563;SDS011;19894;48.452;11.494;2022-08-21T07:36:48;0.30;;;0.30;;
33563;SDS011;19894;48.452;11.494;2022-08-21T07:39:14;0.22;;;0.20;;
33563;SDS011;19894;48.452;11.494;2022-08-21T07:41:39;0.30;;;0.28;;
33563;SDS011;19894;48.452;11.494;2022-08-21T07:44:05;0.28;;;0.10;;
33563;SDS011;19894;48.452;11.494;2022-08-21T07:46:30;0.20;;;0.20;;
33563;SDS011;19894;48.452;11.494;2022-08-21T07:48:56;0.35;;;0.35;;
33563;SDS011;19894;48.452;11.494;2022-08-21T07:51:23;0.20;;;0.20;;
33563;SDS011;19894;48.452;11.494;2022-08-21T07:53:52;0.28;;;0.28;;
33563;SDS011;19894;48.452;11.494;2022-08-21T07:56:20;0.10;;;0.10;;
33563;SDS011;19894;48.452;11.494;2022-08-21T07:58:46;0.20;;;0.20;;
33563;SDS011;19894;48.452;11.494;2022-08-21T08:01:12;0.20;;;0.20;;
33563;SDS011;19894;48.452;11.494;2022-08-21T08:03:38;0.20;;;0.20;;
33563;SDS011;19894;48.452;11.494;2022-08-21T08:06:04;0.20;;;0.20;;
33563;SDS011;19894;48.452;11.494;2022-08-21T08:08:31;0.85;;;0.30;;
33563;SDS011;19894;48.452;11.494;2022-08-21T08:10:56;0.22;;;0.22;;
33563;SDS011;19894;48.452;11.494;2022-08-21T08:13:23;0.20;;;0.20;;
33563;SDS011;19894;48.452;11.494;2022-08-21T08:15:50;0.22;;;0.22;;
33563;SDS011;19894;48.452;11.494;2022-08-21T08:18:15;0.20;;;0.20;;
33563;SDS011;19894;48.452;11.494;2022-08-21T08:20:41;0.40;;;0.40;;
33563;SDS011;19894;48.452;11.494;2022-08-21T08:23:09;0.47;;;0.40;;
33563;SDS011;19894;48.452;11.494;2022-08-21T08:25:38;0.43;;;0.40;;
33563;SDS011;19894;48.452;11.494;2022-08-21T08:28:04;0.30;;;0.30;;
33563;SDS011;19894;48.452;11.494;2022-08-21T08:30:30;0.77;;;0.40;;
33563;SDS011;19894;48.452;11.494;2022-08-21T08:32:56;0.20;;;0.20;;
33563;SDS011;19894;48.452;11.494;2022-08-21T08:35:22;0.20;;;0.20;;
33563;SDS011;19894;48.452;11.494;2022-08-21T08:37:50;0.22;;;0.20;;
33563;SDS011;19894;48.452;11.494;2022-08-21T08:40:39;0.20;;;0.20;;
33563;SDS011;19894;48.452;11.494;2022-08-21T08:43:09;0.30;;;0.30;;
33563;SDS011;19894;48.452;11.494;2022-08-21T08:45:37;0.20;;;0.20;;
33563;SDS011;19894;48.452;11.494;2022-08-21T08:48:06;0.33;;;0.30;;
33563;SDS011;19894;48.452;11.494;2022-08-21T08:50:52;0.43;;;0.43;;
33563;SDS011;19894;48.452;11.494;2022-08-21T08:53:22;0.40;;;0.40;;
33563;SDS011;19894;48.452;11.494;2022-08-21T08:55:53;0.40;;;0.32;;
33563;SDS011;19894;48.452;11.494;2022-08-21T08:58:25;0.38;;;0.38;;
33563;SDS011;19894;48.452;11.494;2022-08-21T09:00:55;0.40;;;0.40;;
33563;SDS011;19894;48.452;11.494;2022-08-21T09:03:22;0.40;;;0.40;;
33563;SDS011;19894;48.452;11.494;2022-08-21T09:05:56;0.30;;;0.30;;
33563;SDS011;19894;48.452;11.494;2022-08-21T09:08:48;0.22;;;0.22;;
33563;SDS011;19894;48.452;11.494;2022-08-21T09:11:29;0.35;;;0.35;;
33563;SDS011;19894;48.452;11.494;2022-08-21T09:14:23;0.30;;;0.30;;
33563;SDS011;19894;48.452;11.494;2022-08-21T09:17:13;0.20;;;0.20;;
33563;SDS011;19894;48.452;11.494;2022-08-21T09:19:59;0.30;;;0.30;;
33563;SDS011;19894;48.452;11.494;2022-08-21T09:25:20;0.35;;;0.35;;
33563;SDS011;19894;48.452;11.494;2022-08-21T09:27:49;0.60;;;0.60;;
33563;SDS011;19894;48.452;11.494;2022-08-21T09:30:15;0.50;;;0.43;;
33563;SDS011;19894;48.452;11.494;2022-08-21T09:32:42;0.30;;;0.30;;
33563;SDS011;19894;48.452;11.494;2022-08-21T09:42:56;0.60;;;0.52;;
33563;SDS011;19894;48.452;11.494;2022-08-21T09:45:23;0.20;;;0.20;;
33563;SDS011;19894;48.452;11.494;2022-08-21T09:47:49;0.30;;;0.30;;
33563;SDS011;19894;48.452;11.494;2022-08-21T09:50:16;0.38;;;0.38;;
33563;SDS011;19894;48.452;11.494;2022-08-21T09:52:54;0.30;;;0.30;;
33563;SDS011;19894;48.452;11.494;2022-08-21T09:56:17;0.47;;;0.30;;
33563;SDS011;19894;48.452;11.494;2022-08-21T09:58:36;0.35;;;0.35;;
33563;SDS011;19894;48.452;11.494;2022-08-21T10:01:05;0.28;;;0.28;;
33563;SDS011;19894;48.452;11.494;2022-08-21T10:03:37;0.50;;;0.40;;
33563;SDS011;19894;48.452;11.494;2022-08-21T10:06:04;0.30;;;0.30;;
33563;SDS011;19894;48.452;11.494;2022-08-21T10:08:34;0.50;;;0.50;;
33563;SDS011;19894;48.452;11.494;2022-08-21T10:11:02;0.50;;;0.47;;
33563;SDS011;19894;48.452;11.494;2022-08-21T10:13:41;0.43;;;0.40;;
33563;SDS011;19894;48.452;11.494;2022-08-21T10:16:30;0.50;;;0.50;;
33563;SDS011;19894;48.452;11.494;2022-08-21T10:27:13;0.30;;;0.30;;
33563;SDS011;19894;48.452;11.494;2022-08-21T10:30:03;0.20;;;0.20;;
33563;SDS011;19894;48.452;11.494;2022-08-21T10:35:27;0.40;;;0.40;;
33563;SDS011;19894;48.452;11.494;2022-08-21T10:40:30;0.40;;;0.40;;
33563;SDS011;19894;48.452;11.494;2022-08-21T10:45:48;0.30;;;0.30;;
33563;SDS011;19894;48.452;11.494;2022-08-21T10:56:44;0.65;;;0.65;;
33563;SDS011;19894;48.452;11.494;2022-08-21T10:59:22;0.50;;;0.50;;
33563;SDS011;19894;48.452;11.494;2022-08-21T11:07:07;0.52;;;0.50;;
33563;SDS011;19894;48.452;11.494;2022-08-21T11:09:43;0.40;;;0.40;;
33563;SDS011;19894;48.452;11.494;2022-08-21T11:12:19;0.52;;;0.52;;
33563;SDS011;19894;48.452;11.494;2022-08-21T11:17:43;0.35;;;0.35;;
33563;SDS011;19894;48.452;11.494;2022-08-21T11:20:38;0.50;;;0.50;;
33563;SDS011;19894;48.452;11.494;2022-08-21T11:23:11;0.40;;;0.40;;
33563;SDS011;19894;48.452;11.494;2022-08-21T11:25:44;0.60;;;0.50;;
33563;SDS011;19894;48.452;11.494;2022-08-21T11:28:29;0.30;;;0.30;;
33563;SDS011;19894;48.452;11.494;2022-08-21T11:33:47;0.30;;;0.30;;
33563;SDS011;19894;48.452;11.494;2022-08-21T11:36:44;0.57;;;0.40;;
33563;SDS011;19894;48.452;11.494;2022-08-21T11:39:25;0.43;;;0.43;;
33563;SDS011;19894;48.452;11.494;2022-08-21T11:50:28;0.40;;;0.40;;
33563;SDS011;19894;48.452;11.494;2022-08-21T11:53:09;0.38;;;0.38;;
33563;SDS011;19894;48.452;11.494;2022-08-21T11:55:50;0.30;;;0.30;;
33563;SDS011;19894;48.452;11.494;2022-08-21T11:58:29;0.30;;;0.30;;
33563;SDS011;19894;48.452;11.494;2022-08-21T12:01:11;0.60;;;0.55;;
33563;SDS011;19894;48.452;11.494;2022-08-21T12:03:43;0.60;;;0.60;;
33563;SDS011;19894;48.452;11.494;2022-08-21T12:06:27;0.60;;;0.50;;
33563;SDS011;19894;48.452;11.494;2022-08-21T12:08:58;0.40;;;0.40;;
33563;SDS011;19894;48.452;11.494;2022-08-21T12:11:28;0.50;;;0.50;;
33563;SDS011;19894;48.452;11.494;2022-08-21T12:16:34;0.50;;;0.50;;
33563;SDS011;19894;48.452;11.494;2022-08-21T12:19:27;0.50;;;0.50;;
33563;SDS011;19894;48.452;11.494;2022-08-21T12:29:46;0.57;;;0.57;;
33563;SDS011;19894;48.452;11.494;2022-08-21T12:34:40;0.70;;;0.70;;
33563;SDS011;19894;48.452;11.494;2022-08-21T12:37:46;0.55;;;0.55;;
33563;SDS011;19894;48.452;11.494;2022-08-21T12:40:31;0.50;;;0.50;;
33563;SDS011;19894;48.452;11.494;2022-08-21T12:43:05;0.38;;;0.38;;
33563;SDS011;19894;48.452;11.494;2022-08-21T12:45:42;0.50;;;0.50;;
33563;SDS011;19894;48.452;11.494;2022-08-21T12:48:14;0.50;;;0.50;;
33563;SDS011;19894;48.452;11.494;2022-08-21T12:51:14;0.60;;;0.60;;
33563;SDS011;19894;48.452;11.494;2022-08-21T12:53:47;0.30;;;0.30;;
33563;SDS011;19894;48.452;11.494;2022-08-21T12:56:15;0.50;;;0.50;;
33563;SDS011;19894;48.452;11.494;2022-08-21T12:59:25;0.68;;;0.43;;
33563;SDS011;19894;48.452;11.494;2022-08-21T13:01:39;0.73;;;0.73;;
33563;SDS011;19894;48.452;11.494;2022-08-21T13:04:19;0.50;;;0.50;;
33563;SDS011;19894;48.452;11.494;2022-08-21T13:06:50;0.95;;;0.85;;
33563;SDS011;19894;48.452;11.494;2022-08-21T13:09:20;0.75;;;0.70;;
33563;SDS011;19894;48.452;11.494;2022-08-21T13:11:51;0.60;;;0.60;;
33563;SDS011;19894;48.452;11.494;2022-08-21T13:16:55;0.73;;;0.73;;
33563;SDS011;19894;48.452;11.494;2022-08-21T13:19:23;0.40;;;0.40;;
33563;SDS011;19894;48.452;11.494;2022-08-21T13:21:50;0.45;;;0.40;;
33563;SDS011;19894;48.452;11.494;2022-08-21T13:26:51;0.55;;;0.50;;
33563;SDS011;19894;48.452;11.494;2022-08-21T13:29:18;0.40;;;0.40;;
33563;SDS011;19894;48.452;11.494;2022-08-21T13:31:47;0.45;;;0.45;;
33563;SDS011;19894;48.452;11.494;2022-08-21T13:34:19;0.80;;;0.65;;
33563;SDS011;19894;48.452;11.494;2022-08-21T13:36:49;0.40;;;0.40;;
33563;SDS011;19894;48.452;11.494;2022-08-21T13:39:17;0.50;;;0.50;;
33563;SDS011;19894;48.452;11.494;2022-08-21T13:41:44;0.45;;;0.45;;
33563;SDS011;19894;48.452;11.494;2022-08-21T13:44:18;0.60;;;0.60;;
33563;SDS011;19894;48.452;11.494;2022-08-21T13:46:51;0.32;;;0.32;;
33563;SDS011;19894;48.452;11.494;2022-08-21T13:49:20;0.55;;;0.47;;
33563;SDS011;19894;48.452;11.494;2022-08-21T13:51:51;0.50;;;0.50;;
33563;SDS011;19894;48.452;11.494;2022-08-21T13:56:52;0.80;;;0.50;;
33563;SDS011;19894;48.452;11.494;2022-08-21T13:59:29;0.85;;;0.60;;
33563;SDS011;19894;48.452;11.494;2022-08-21T14:02:19;0.50;;;0.50;;
33563;SDS011;19894;48.452;11.494;2022-08-21T14:07:17;0.30;;;0.30;;
33563;SDS011;19894;48.452;11.494;2022-08-21T14:09:46;1.02;;;0.60;;
33563;SDS011;19894;48.452;11.494;2022-08-21T14:12:17;0.50;;;0.50;;
33563;SDS011;19894;48.452;11.494;2022-08-21T14:14:50;0.50;;;0.50;;
33563;SDS011;19894;48.452;11.494;2022-08-21T14:17:29;0.38;;;0.38;;
33563;SDS011;19894;48.452;11.494;2022-08-21T14:19:59;0.47;;;0.47;;
33563;SDS011;19894;48.452;11.494;2022-08-21T14:22:47;0.90;;;0.80;;
33563;SDS011;19894;48.452;11.494;2022-08-21T14:30:36;0.85;;;0.77;;
33563;SDS011;19894;48.452;11.494;2022-08-21T14:33:04;0.60;;;0.60;;
33563;SDS011;19894;48.452;11.494;2022-08-21T14:35:35;0.50;;;0.50;;
33563;SDS011;19894;48.452;11.494;2022-08-21T14:38:01;0.70;;;0.70;;
33563;SDS011;19894;48.452;11.494;2022-08-21T14:40:26;0.50;;;0.50;;
33563;SDS011;19894;48.452;11.494;2022-08-21T14:42:52;0.75;;;0.75;;
33563;SDS011;19894;48.452;11.494;2022-08-21T14:47:51;0.40;;;0.40;;
33563;SDS011;19894;48.452;11.494;2022-08-21T14:50:16;0.43;;;0.43;;
33563;SDS011;19894;48.452;11.494;2022-08-21T14:52:42;0.63;;;0.63;;
33563;SDS011;19894;48.452;11.494;2022-08-21T14:55:10;0.40;;;0.40;;
33563;SDS011;19894;48.452;11.494;2022-08-21T14:57:39;0.70;;;0.70;;
33563;SDS011;19894;48.452;11.494;2022-08-21T15:00:08;0.47;;;0.47;;
33563;SDS011;19894;48.452;11.494;2022-08-21T15:02:36;0.50;;;0.50;;
33563;SDS011;19894;48.452;11.494;2022-08-21T15:05:02;0.77;;;0.70;;
33563;SDS011;19894;48.452;11.494;2022-08-21T15:07:28;0.57;;;0.55;;
33563;SDS011;19894;48.452;11.494;2022-08-21T15:09:53;0.30;;;0.30;;
33563;SDS011;19894;48.452;11.494;2022-08-21T15:12:19;0.40;;;0.40;;
33563;SDS011;19894;48.452;11.494;2022-08-21T15:14:44;0.50;;;0.50;;
33563;SDS011;19894;48.452;11.494;2022-08-21T15:17:10;0.50;;;0.50;;
33563;SDS011;19894;48.452;11.494;2022-08-21T15:19:37;0.60;;;0.60;;
33563;SDS011;19894;48.452;11.494;2022-08-21T15:22:03;0.47;;;0.47;;
33563;SDS011;19894;48.452;11.494;2022-08-21T15:24:28;0.82;;;0.70;;
33563;SDS011;19894;48.452;11.494;2022-08-21T15:26:55;0.40;;;0.40;;
33563;SDS011;19894;48.452;11.494;2022-08-21T15:29:23;0.70;;;0.70;;
33563;SDS011;19894;48.452;11.494;2022-08-21T15:31:59;0.50;;;0.50;;
33563;SDS011;19894;48.452;11.494;2022-08-21T15:34:39;0.47;;;0.45;;
33563;SDS011;19894;48.452;11.494;2022-08-21T15:37:05;0.57;;;0.57;;
33563;SDS011;19894;48.452;11.494;2022-08-21T15:39:33;0.60;;;0.60;;
33563;SDS011;19894;48.452;11.494;2022-08-21T15:42:00;0.70;;;0.70;;
33563;SDS011;19894;48.452;11.494;2022-08-21T15:44:27;0.65;;;0.60;;
33563;SDS011;19894;48.452;11.494;2022-08-21T15:46:53;0.57;;;0.50;;
33563;SDS011;19894;48.452;11.494;2022-08-21T15:49:19;0.45;;;0.45;;
33563;SDS011;19894;48.452;11.494;2022-08-21T15:51:45;0.60;;;0.60;;
33563;SDS011;19894;48.452;11.494;2022-08-21T15:54:11;0.70;;;0.70;;
33563;SDS011;19894;48.452;11.494;2022-08-21T15:56:37;0.40;;;0.40;;
33563;SDS011;19894;48.452;11.494;2022-08-21T15:59:05;1.30;;;1.05;;
33563;SDS011;19894;48.452;11.494;2022-08-21T16:01:33;0.50;;;0.50;;
33563;SDS011;19894;48.452;11.494;2022-08-21T16:04:00;0.68;;;0.50;;
33563;SDS011;19894;48.452;11.494;2022-08-21T16:06:28;0.50;;;0.50;;
33563;SDS011;19894;48.452;11.494;2022-08-21T16:08:53;0.50;;;0.50;;
33563;SDS011;19894;48.452;11.494;2022-08-21T16:11:19;0.80;;;0.80;;
33563;SDS011;19894;48.452;11.494;2022-08-21T16:13:45;0.43;;;0.43;;